createdAt,value
2018-07-23T00:01:06.522Z,216.12
2018-07-23T00:03:43.442Z,222.80
2018-07-23T00:06:20.484Z,227.80
2018-07-23T00:08:52.273Z,220.90
2018-07-23T00:11:28.807Z,221.93
2018-07-23T00:14:02.160Z,228.73
2018-07-23T00:16:38.009Z,233.07
2018-07-23T00:19:14.630Z,234.57
2018-07-23T00:21:52.557Z,234.43
2018-07-23T00:24:30.956Z,227.30
2018-07-23T00:27:10.144Z,226.07
2018-07-23T00:29:44.133Z,227.15
2018-07-23T00:32:17.133Z,228.07
2018-07-23T00:34:48.248Z,224.55
2018-07-23T00:37:19.350Z,222.75
2018-07-23T00:39:50.451Z,230.30
2018-07-23T00:42:21.900Z,228.40
2018-07-23T00:44:52.947Z,238.35
2018-07-23T00:47:24.032Z,234.35
2018-07-23T00:49:54.927Z,228.07
2018-07-23T00:52:26.277Z,224.30
2018-07-23T00:54:57.208Z,224.45
2018-07-23T00:57:28.584Z,224.47
2018-07-23T00:59:59.668Z,232.45
2018-07-23T01:02:30.820Z,235.28
2018-07-23T01:05:01.970Z,233.57
2018-07-23T01:07:33.093Z,241.40
2018-07-23T01:10:04.631Z,234.77
2018-07-23T01:12:36.323Z,225.95
2018-07-23T01:15:08.236Z,229.25
2018-07-23T01:17:41.735Z,227.55
2018-07-23T01:20:14.476Z,232.55
2018-07-23T01:22:45.476Z,221.40
2018-07-23T01:25:24.488Z,228.02
2018-07-23T01:28:03.711Z,226.32
2018-07-23T01:30:37.614Z,228.45
2018-07-23T01:33:10.338Z,222.25
2018-07-23T01:35:46.485Z,219.25
2018-07-23T01:38:24.477Z,223.75
2018-07-23T01:40:57.343Z,227.07
2018-07-23T01:43:28.612Z,223.22
2018-07-23T01:46:04.531Z,224.07
2018-07-23T01:48:36.812Z,225.03
2018-07-23T01:51:07.903Z,224.75
2018-07-23T01:53:39.293Z,232.83
2018-07-23T01:56:10.326Z,225.00
2018-07-23T01:58:41.307Z,225.15
2018-07-23T02:01:13.195Z,240.47
2018-07-23T02:03:44.744Z,228.80
2018-07-23T02:06:15.773Z,228.37
2018-07-23T02:08:46.838Z,226.47
2018-07-23T02:11:18.239Z,222.90
2018-07-23T02:13:49.246Z,217.80
2018-07-23T02:16:20.195Z,221.10
2018-07-23T02:18:51.180Z,215.70
2018-07-23T02:21:22.212Z,228.37
2018-07-23T02:23:53.777Z,224.05
2018-07-23T02:26:24.760Z,220.75
2018-07-23T02:28:58.496Z,233.60
2018-07-23T02:31:29.755Z,222.48
2018-07-23T02:34:00.929Z,221.13
2018-07-23T02:36:32.407Z,211.25
2018-07-23T02:39:03.646Z,223.20
2018-07-23T02:41:34.707Z,215.82
2018-07-23T02:44:05.947Z,218.00
2018-07-23T02:46:37.061Z,215.97
2018-07-23T02:49:08.540Z,232.52
2018-07-23T02:51:39.702Z,221.93
2018-07-23T02:54:11.110Z,221.03
2018-07-23T02:56:42.107Z,216.73
2018-07-23T02:59:13.155Z,218.95
2018-07-23T03:01:44.182Z,225.72
2018-07-23T03:04:15.230Z,215.50
2018-07-23T03:06:46.170Z,256.45
2018-07-23T03:09:17.290Z,261.27
2018-07-23T03:11:48.647Z,236.82
2018-07-23T03:14:19.797Z,223.32
2018-07-23T03:16:50.824Z,230.85
2018-07-23T03:19:22.245Z,223.03
2018-07-23T03:21:53.307Z,222.75
2018-07-23T03:24:25.112Z,226.25
2018-07-23T03:26:56.484Z,224.60
2018-07-23T03:29:27.538Z,221.03
2018-07-23T03:31:58.708Z,220.85
2018-07-23T03:34:30.168Z,229.90
2018-07-23T03:37:01.499Z,223.32
2018-07-23T03:39:32.905Z,221.47
2018-07-23T03:42:05.548Z,232.03
2018-07-23T03:44:36.958Z,234.12
2018-07-23T03:47:10.399Z,228.40
2018-07-23T03:49:42.305Z,228.40
2018-07-23T03:52:13.726Z,230.00
2018-07-23T03:54:45.512Z,228.62
2018-07-23T03:57:18.912Z,225.40
2018-07-23T03:59:50.221Z,228.77
2018-07-23T04:02:21.119Z,231.97
2018-07-23T04:04:52.296Z,230.05
2018-07-23T04:07:23.754Z,228.83
2018-07-23T04:09:54.869Z,227.72
2018-07-23T04:12:26.535Z,226.98
2018-07-23T04:14:58.259Z,231.20
2018-07-23T04:17:29.283Z,233.65
2018-07-23T04:20:00.857Z,229.38
2018-07-23T04:22:32.035Z,228.95
2018-07-23T04:25:03.657Z,233.78
2018-07-23T04:27:34.673Z,230.60
2018-07-23T04:30:06.246Z,224.70
2018-07-23T04:32:37.391Z,233.17
2018-07-23T04:35:11.799Z,235.43
2018-07-23T04:37:43.094Z,233.68
2018-07-23T04:40:14.517Z,232.12
2018-07-23T04:42:45.659Z,224.88
2018-07-23T04:45:19.004Z,230.85
2018-07-23T04:47:51.989Z,237.10
2018-07-23T04:50:25.759Z,232.25
2018-07-23T04:52:56.954Z,228.42
2018-07-23T04:55:28.415Z,226.07
2018-07-23T04:57:59.648Z,222.25
2018-07-23T05:00:33.365Z,217.07
2018-07-23T05:03:05.153Z,218.82
2018-07-23T05:05:36.723Z,220.50
2018-07-23T05:08:12.988Z,231.70
2018-07-23T05:10:45.208Z,232.40
2018-07-23T05:13:16.356Z,230.72
2018-07-23T05:15:47.576Z,220.57
2018-07-23T05:18:18.602Z,224.35
2018-07-23T05:20:49.718Z,220.40
2018-07-23T05:23:20.804Z,224.35
2018-07-23T05:25:51.893Z,230.10
2018-07-23T05:28:22.916Z,233.40
2018-07-23T05:30:53.784Z,230.03
2018-07-23T05:33:24.660Z,229.95
2018-07-23T05:35:55.557Z,239.90
2018-07-23T05:38:30.739Z,239.95
2018-07-23T05:41:02.559Z,231.50
2018-07-23T05:43:33.585Z,227.40
2018-07-23T05:46:05.959Z,238.97
2018-07-23T05:48:39.650Z,232.27
2018-07-23T05:51:11.248Z,228.58
2018-07-23T05:53:42.548Z,230.40
2018-07-23T05:56:13.937Z,233.95
2018-07-23T05:58:44.823Z,238.28
2018-07-23T06:01:15.778Z,247.22
2018-07-23T06:03:46.670Z,244.45
2018-07-23T06:06:19.375Z,236.35
2018-07-23T06:08:50.865Z,245.25
2018-07-23T06:11:22.312Z,230.10
2018-07-23T06:13:55.306Z,238.15
2018-07-23T06:16:26.882Z,237.15
2018-07-23T06:19:04.197Z,248.00
2018-07-23T06:21:35.579Z,250.22
2018-07-23T06:24:07.397Z,233.35
2018-07-23T06:26:38.435Z,243.33
2018-07-23T06:29:09.564Z,243.10
2018-07-23T06:31:40.844Z,240.60
2018-07-23T06:34:13.654Z,252.07
2018-07-23T06:36:44.741Z,251.67
2018-07-23T06:39:15.698Z,249.12
2018-07-23T06:41:46.729Z,253.88
2018-07-23T06:44:17.768Z,239.20
2018-07-23T06:46:52.399Z,249.05
2018-07-23T06:49:24.073Z,252.50
2018-07-23T06:51:55.278Z,255.57
2018-07-23T06:54:26.366Z,256.40
2018-07-23T06:56:57.527Z,256.00
2018-07-23T06:59:28.843Z,252.45
2018-07-23T07:02:07.130Z,250.82
2018-07-23T07:04:44.549Z,258.90
2018-07-23T07:07:15.849Z,253.58
2018-07-23T07:09:46.831Z,248.30
2018-07-23T07:12:19.622Z,259.02
2018-07-23T07:14:51.922Z,256.63
2018-07-23T07:17:23.732Z,253.47
2018-07-23T07:19:55.080Z,252.38
2018-07-23T07:22:26.001Z,265.05
2018-07-23T07:24:57.278Z,254.32
2018-07-23T07:27:28.577Z,255.95
2018-07-23T07:30:00.252Z,251.50
2018-07-23T07:32:31.343Z,250.38
2018-07-23T07:35:05.058Z,265.20
2018-07-23T07:37:36.247Z,275.05
2018-07-23T07:40:07.309Z,257.48
2018-07-23T07:42:38.308Z,248.00
2018-07-23T07:45:09.652Z,272.07
2018-07-23T07:47:42.492Z,267.57
2018-07-23T07:50:18.775Z,280.70
2018-07-23T07:52:57.590Z,287.38
2018-07-23T07:55:30.712Z,259.00
2018-07-23T07:58:15.231Z,277.13
2018-07-23T08:00:49.529Z,294.23
2018-07-23T08:03:24.722Z,265.12
2018-07-23T08:06:12.468Z,265.55
2018-07-23T08:08:52.589Z,266.98
2018-07-23T08:11:25.715Z,248.55
2018-07-23T08:13:56.854Z,262.63
2018-07-23T08:16:30.644Z,263.37
2018-07-23T08:19:02.333Z,251.25
2018-07-23T08:21:33.635Z,253.40
2018-07-23T08:24:05.107Z,258.85
2018-07-23T08:26:36.898Z,259.55
2018-07-23T08:29:09.534Z,262.05
2018-07-23T08:31:40.914Z,264.20
2018-07-23T08:34:11.988Z,263.23
2018-07-23T08:36:43.187Z,259.92
2018-07-23T08:39:14.353Z,251.27
2018-07-23T08:41:45.283Z,263.25
2018-07-23T08:44:16.705Z,274.92
2018-07-23T08:46:48.723Z,244.97
2018-07-23T08:49:19.803Z,265.75
2018-07-23T08:51:50.986Z,247.50
2018-07-23T08:54:25.048Z,254.10
2018-07-23T08:56:56.346Z,260.60
2018-07-23T08:59:27.398Z,248.50
2018-07-23T09:01:58.568Z,259.30
2018-07-23T09:04:29.988Z,263.02
2018-07-23T09:07:01.199Z,259.85
2018-07-23T09:09:32.721Z,240.85
2018-07-23T09:12:04.218Z,268.50
2018-07-23T09:14:35.798Z,263.02
2018-07-23T09:17:06.984Z,252.50
2018-07-23T09:19:38.195Z,269.05
2018-07-23T09:22:09.788Z,264.52
2018-07-23T09:24:41.000Z,270.02
2018-07-23T09:27:12.987Z,278.52
2018-07-23T09:29:44.143Z,253.05
2018-07-23T09:32:15.355Z,272.40
2018-07-23T09:34:46.580Z,255.22
2018-07-23T09:37:19.324Z,252.28
2018-07-23T09:39:50.309Z,257.80
2018-07-23T09:42:21.316Z,265.10
2018-07-23T09:45:05.084Z,246.15
2018-07-23T09:47:52.558Z,262.27
2018-07-23T09:50:35.292Z,279.85
2018-07-23T09:53:09.003Z,274.62
2018-07-23T09:55:45.676Z,269.95
2018-07-23T09:58:19.639Z,264.08
2018-07-23T10:00:55.333Z,274.15
2018-07-23T10:03:26.702Z,270.75
2018-07-23T10:05:58.741Z,279.98
2018-07-23T10:08:30.716Z,256.65
2018-07-23T10:11:02.217Z,257.87
2018-07-23T10:13:33.327Z,255.50
2018-07-23T10:16:04.691Z,258.47
2018-07-23T10:18:38.873Z,263.45
2018-07-23T10:21:11.571Z,273.85
2018-07-23T10:23:42.665Z,283.82
2018-07-23T10:26:16.714Z,275.93
2018-07-23T10:28:47.987Z,258.50
2018-07-23T10:31:19.173Z,280.37
2018-07-23T10:33:50.134Z,279.50
2018-07-23T10:36:21.222Z,272.40
2018-07-23T10:38:53.016Z,284.15
2018-07-23T10:41:23.968Z,287.72
2018-07-23T10:43:55.500Z,292.70
2018-07-23T10:46:26.581Z,286.55
2018-07-23T10:48:57.572Z,286.73
2018-07-23T10:51:29.517Z,276.77
2018-07-23T10:54:01.856Z,293.25
2018-07-23T10:56:40.763Z,287.77
2018-07-23T10:59:12.124Z,283.50
2018-07-23T11:01:43.534Z,299.62
2018-07-23T11:07:17.065Z,286.02
2018-07-23T11:09:48.375Z,299.73
2018-07-23T11:12:19.919Z,270.65
2018-07-23T11:14:51.564Z,295.48
2018-07-23T11:17:22.532Z,312.65
2018-07-23T11:19:53.551Z,319.65
2018-07-23T11:22:30.730Z,330.80
2018-07-23T11:25:38.219Z,330.60
2018-07-23T11:27:33.039Z,316.45
2018-07-23T11:30:04.588Z,346.30
2018-07-23T11:32:36.246Z,322.52
2018-07-23T11:35:07.555Z,297.82
2018-07-23T11:37:38.568Z,277.62
2018-07-23T11:40:09.760Z,283.50
2018-07-23T11:42:45.091Z,297.93
2018-07-23T11:45:20.787Z,288.95
2018-07-23T11:48:00.113Z,295.05
2018-07-23T11:50:33.400Z,292.00
2018-07-23T11:53:05.651Z,291.75
2018-07-23T11:55:37.196Z,296.48
2018-07-23T11:58:09.678Z,308.57
2018-07-23T12:00:41.652Z,318.15
2018-07-23T12:03:14.558Z,320.07
2018-07-23T12:05:45.895Z,292.20
2018-07-23T12:08:16.817Z,297.63
2018-07-23T12:10:48.175Z,326.32
2018-07-23T12:13:19.141Z,292.68
2018-07-23T12:15:50.724Z,295.23
2018-07-23T12:18:21.825Z,299.15
2018-07-23T12:20:56.455Z,288.55
2018-07-23T12:23:27.437Z,310.55
2018-07-23T12:25:58.788Z,318.80
2018-07-23T12:28:29.642Z,307.45
2018-07-23T12:31:00.877Z,302.48
2018-07-23T12:33:31.869Z,294.48
2018-07-23T12:36:02.792Z,283.52
2018-07-23T12:38:33.860Z,307.07
2018-07-23T12:41:04.788Z,290.38
2018-07-23T12:43:35.660Z,304.82
2018-07-23T12:46:08.631Z,326.42
2018-07-23T12:48:39.807Z,319.30
2018-07-23T12:51:12.128Z,322.37
2018-07-23T12:53:43.016Z,310.32
2018-07-23T12:56:14.485Z,339.72
2018-07-23T12:58:45.427Z,339.05
2018-07-23T13:01:17.549Z,306.07
2018-07-23T13:03:48.579Z,321.13
2018-07-23T13:06:19.944Z,313.00
2018-07-23T13:08:50.948Z,318.02
2018-07-23T13:11:23.170Z,351.27
2018-07-23T13:13:54.499Z,356.52
2018-07-23T13:16:25.842Z,352.80
2018-07-23T13:18:57.338Z,333.17
2018-07-23T13:21:28.680Z,331.02
2018-07-23T13:23:59.990Z,355.27
2018-07-23T13:26:32.301Z,361.65
2018-07-23T13:29:07.863Z,347.75
2018-07-23T13:32:00.478Z,342.93
2018-07-23T13:34:37.728Z,348.70
2018-07-23T13:37:13.684Z,363.40
2018-07-23T13:39:45.627Z,346.73
2018-07-23T13:42:19.369Z,335.75
2018-07-23T13:44:51.018Z,344.45
2018-07-23T13:47:26.498Z,356.45
2018-07-23T13:49:59.667Z,373.65
2018-07-23T13:52:32.699Z,381.50
2018-07-23T13:55:05.800Z,394.85
2018-07-23T13:57:41.272Z,363.70
2018-07-23T14:00:14.637Z,352.68
2018-07-23T14:02:46.523Z,361.70
2018-07-23T14:05:18.187Z,373.13
2018-07-23T14:07:49.267Z,333.75
2018-07-23T14:10:21.076Z,347.07
2018-07-23T14:12:52.599Z,317.37
2018-07-23T14:15:23.955Z,344.65
2018-07-23T14:17:55.295Z,351.30
2018-07-23T14:20:26.580Z,353.45
2018-07-23T14:22:58.089Z,372.37
2018-07-23T14:25:29.453Z,356.38
2018-07-23T14:28:01.028Z,352.98
2018-07-23T14:30:32.216Z,332.25
2018-07-23T14:33:04.173Z,365.87
2018-07-23T14:35:35.810Z,365.15
2018-07-23T14:38:07.961Z,359.15
2018-07-23T14:40:39.362Z,380.67
2018-07-23T14:43:10.783Z,377.98
2018-07-23T14:45:42.302Z,347.48
2018-07-23T14:48:13.782Z,369.10
2018-07-23T14:50:45.073Z,326.95
2018-07-23T14:53:16.606Z,332.20
2018-07-23T14:55:47.695Z,347.98
2018-07-23T14:58:19.342Z,317.52
2018-07-23T15:00:51.027Z,344.93
2018-07-23T15:03:22.207Z,333.87
2018-07-23T15:05:53.436Z,322.00
2018-07-23T15:08:24.819Z,348.62
2018-07-23T15:10:55.884Z,349.42
2018-07-23T15:13:27.082Z,316.10
2018-07-23T15:15:58.321Z,332.40
2018-07-23T15:18:29.537Z,358.87
2018-07-23T15:21:00.736Z,356.98
2018-07-23T15:23:32.239Z,374.35
2018-07-23T15:26:04.596Z,339.38
2018-07-23T15:28:39.471Z,337.50
2018-07-23T15:31:12.306Z,332.40
2018-07-23T15:33:46.445Z,342.15
2018-07-23T15:36:19.874Z,324.07
2018-07-23T15:38:52.308Z,317.98
2018-07-23T15:41:24.489Z,345.45
2018-07-23T15:43:56.922Z,370.60
2018-07-23T15:46:30.028Z,361.65
2018-07-23T15:49:02.986Z,355.32
2018-07-23T15:51:35.657Z,339.98
2018-07-23T15:54:09.137Z,329.32
2018-07-23T15:56:40.395Z,349.05
2018-07-23T15:59:12.909Z,365.87
2018-07-23T16:01:45.626Z,363.55
2018-07-23T16:04:19.260Z,367.20
2018-07-23T16:06:51.465Z,367.77
2018-07-23T16:09:23.520Z,365.37
2018-07-23T16:11:54.864Z,339.95
2018-07-23T16:14:26.266Z,353.67
2018-07-23T16:16:57.458Z,354.25
2018-07-23T16:19:28.756Z,368.63
2018-07-23T16:22:00.356Z,346.50
2018-07-23T16:24:33.215Z,375.55
2018-07-23T16:27:04.410Z,347.98
2018-07-23T16:29:35.333Z,371.15
2018-07-23T16:32:06.992Z,350.32
2018-07-23T16:34:38.316Z,340.90
2018-07-23T16:37:09.554Z,358.47
2018-07-23T16:39:41.104Z,304.38
2018-07-23T16:42:12.719Z,327.48
2018-07-23T16:44:55.139Z,343.67
2018-07-23T16:47:27.338Z,324.65
2018-07-23T16:50:10.065Z,336.37
2018-07-23T16:52:41.391Z,319.95
2018-07-23T16:55:12.210Z,341.25
2018-07-23T16:57:43.293Z,303.37
2018-07-23T17:00:15.069Z,319.85
2018-07-23T17:02:50.483Z,320.52
2018-07-23T17:05:23.826Z,311.73
2018-07-23T17:07:56.654Z,317.10
2018-07-23T17:10:28.419Z,338.12
2018-07-23T17:12:59.374Z,333.00
2018-07-23T17:15:32.168Z,361.12
2018-07-23T17:18:04.239Z,336.85
2018-07-23T17:20:35.451Z,328.25
2018-07-23T17:23:07.078Z,310.75
2018-07-23T17:25:39.383Z,322.35
2018-07-23T17:28:14.499Z,323.90
2018-07-23T17:30:48.475Z,329.43
2018-07-23T17:33:22.385Z,331.43
2018-07-23T17:35:55.628Z,317.80
2018-07-23T17:38:27.164Z,334.77
2018-07-23T17:41:01.029Z,314.70
2018-07-23T17:43:35.535Z,345.77
2018-07-23T17:46:08.516Z,344.45
2018-07-23T17:48:40.155Z,359.25
2018-07-23T17:51:20.392Z,334.40
2018-07-23T17:53:56.337Z,345.48
2018-07-23T17:56:33.915Z,383.05
2018-07-23T17:59:10.761Z,363.73
2018-07-23T18:01:42.268Z,338.87
2018-07-23T18:04:13.250Z,334.62
2018-07-23T18:06:44.338Z,329.45
2018-07-23T18:09:18.304Z,332.25
2018-07-23T18:11:52.436Z,320.05
2018-07-23T18:14:23.688Z,313.50
2018-07-23T18:16:58.460Z,307.67
2018-07-23T18:19:46.854Z,295.63
2018-07-23T18:22:25.932Z,338.57
2018-07-23T18:25:04.142Z,306.40
2018-07-23T18:27:41.407Z,329.75
2018-07-23T18:30:21.148Z,373.87
2018-07-23T18:33:00.717Z,343.97
2018-07-23T18:35:51.155Z,374.75
2018-07-23T18:38:36.358Z,333.63
2018-07-23T18:41:10.654Z,303.25
2018-07-23T18:43:50.934Z,340.90
2018-07-23T18:46:30.393Z,322.27
2018-07-23T18:49:25.490Z,326.60
2018-07-23T18:51:58.736Z,335.30
2018-07-23T18:54:39.321Z,347.98
2018-07-23T18:57:14.557Z,323.18
2018-07-23T18:59:52.610Z,315.82
2018-07-23T19:02:26.365Z,307.43
2018-07-23T19:05:01.277Z,306.10
2018-07-23T19:07:41.699Z,305.23
2018-07-23T19:10:16.920Z,293.60
2018-07-23T19:12:57.271Z,268.85
2018-07-23T19:15:34.511Z,276.73
2018-07-23T19:18:12.960Z,284.27
2018-07-23T19:20:52.520Z,284.67
2018-07-23T19:23:26.331Z,294.80
2018-07-23T19:25:58.527Z,285.00
2018-07-23T19:28:32.235Z,281.57
2018-07-23T19:31:03.488Z,279.25
2018-07-23T19:33:34.492Z,313.12
2018-07-23T19:36:06.226Z,297.42
2018-07-23T19:38:38.169Z,282.62
2018-07-23T19:41:13.002Z,283.40
2018-07-23T19:43:45.463Z,275.50
2018-07-23T19:46:17.177Z,300.65
2018-07-23T19:48:50.602Z,270.67
2018-07-23T19:51:21.793Z,277.73
2018-07-23T19:53:53.611Z,263.23
2018-07-23T19:56:25.870Z,301.02
2018-07-23T19:58:57.623Z,280.62
2018-07-23T20:01:29.262Z,271.10
2018-07-23T20:04:01.866Z,280.10
2018-07-23T20:06:33.704Z,282.80
2018-07-23T20:09:07.443Z,263.18
2018-07-23T20:11:38.544Z,284.98
2018-07-23T20:14:09.541Z,279.35
2018-07-23T20:16:40.585Z,277.65
2018-07-23T20:19:11.647Z,277.55
2018-07-23T20:21:43.011Z,294.48
2018-07-23T20:24:14.119Z,266.12
2018-07-23T20:26:45.050Z,272.65
2018-07-23T20:29:16.111Z,275.90
2018-07-23T20:31:48.617Z,280.87
2018-07-23T20:34:19.712Z,257.27
2018-07-23T20:36:50.849Z,279.68
2018-07-23T20:39:22.331Z,281.70
2018-07-23T20:41:53.522Z,275.60
2018-07-23T20:44:27.619Z,268.57
2018-07-23T20:47:00.991Z,282.50
2018-07-23T20:49:34.807Z,296.60
2018-07-23T20:52:09.354Z,286.32
2018-07-23T20:54:40.563Z,284.10
2018-07-23T20:57:12.537Z,277.22
2018-07-23T20:59:44.267Z,290.25
2018-07-23T21:02:15.379Z,299.58
2018-07-23T21:04:46.490Z,285.00
2018-07-23T21:07:17.546Z,273.32
2018-07-23T21:09:49.243Z,287.30
2018-07-23T21:12:20.328Z,254.23
2018-07-23T21:14:52.627Z,249.92
2018-07-23T21:21:07.695Z,254.15
2018-07-23T21:23:38.847Z,252.90
2018-07-23T21:26:10.571Z,261.52
2018-07-23T21:28:41.639Z,257.62
2018-07-23T21:31:12.802Z,251.70
2018-07-23T21:33:43.988Z,251.22
2018-07-23T21:36:15.217Z,262.23
2018-07-23T21:38:46.296Z,263.98
2018-07-23T21:41:18.053Z,266.40
2018-07-23T21:43:49.095Z,242.97
2018-07-23T21:46:20.704Z,251.47
2018-07-23T21:48:51.975Z,247.50
2018-07-23T21:51:23.382Z,242.03
2018-07-23T21:53:54.673Z,259.07
2018-07-23T21:56:26.272Z,260.50
2018-07-23T21:58:57.697Z,254.00
2018-07-23T22:01:29.244Z,249.05
2018-07-23T22:04:00.578Z,248.72
2018-07-23T22:06:31.930Z,252.93
2018-07-23T22:09:03.285Z,250.55
2018-07-23T22:11:34.731Z,254.65
2018-07-23T22:14:07.248Z,267.80
2018-07-23T22:16:39.007Z,262.02
2018-07-23T22:19:09.919Z,259.32
2018-07-23T22:21:42.090Z,247.07
2018-07-23T22:24:13.179Z,257.65
2018-07-23T22:26:44.355Z,248.87
2018-07-23T22:29:15.225Z,250.20
2018-07-23T22:31:46.730Z,240.03
2018-07-23T22:34:18.283Z,256.07
2018-07-23T22:36:49.760Z,244.25
2018-07-23T22:39:20.885Z,250.95
2018-07-23T22:41:52.104Z,249.02
2018-07-23T22:44:23.193Z,255.95
2018-07-23T22:46:54.392Z,244.35
2018-07-23T22:49:26.436Z,246.47
2018-07-23T22:51:57.644Z,236.92
2018-07-23T22:54:28.786Z,231.05
2018-07-23T22:56:59.933Z,246.68
2018-07-23T22:59:31.621Z,236.68
2018-07-23T23:02:03.937Z,244.95
2018-07-23T23:04:35.156Z,252.95
2018-07-23T23:07:06.412Z,233.13
2018-07-23T23:09:37.427Z,244.05
2018-07-23T23:12:08.799Z,244.90
2018-07-23T23:14:39.719Z,245.12
2018-07-23T23:17:10.850Z,247.30
2018-07-23T23:19:41.927Z,258.32
2018-07-23T23:22:13.134Z,252.32
2018-07-23T23:24:44.319Z,224.77
2018-07-23T23:27:15.521Z,254.45
2018-07-23T23:29:46.664Z,245.45
2018-07-23T23:32:17.707Z,243.25
2018-07-23T23:34:48.751Z,238.92
2018-07-23T23:37:20.016Z,235.60
2018-07-23T23:39:51.342Z,234.60
2018-07-23T23:42:22.829Z,243.00
2018-07-23T23:44:53.887Z,232.95
2018-07-23T23:47:25.285Z,230.03
2018-07-23T23:49:56.495Z,226.52
2018-07-23T23:52:31.805Z,228.15
2018-07-23T23:55:03.624Z,226.05
2018-07-23T23:57:36.146Z,222.30
